createdAt,value
2023-12-05T00:02:26.563Z,7.37
2023-12-05T00:05:29.188Z,7.10
2023-12-05T00:08:31.373Z,6.47
2023-12-05T00:11:33.399Z,7.27
2023-12-05T00:14:35.492Z,6.17
2023-12-05T00:17:37.744Z,6.73
2023-12-05T00:20:39.985Z,6.67
2023-12-05T00:23:42.432Z,7.83
2023-12-05T00:26:44.503Z,6.73
2023-12-05T00:29:48.665Z,6.33
2023-12-05T00:32:50.809Z,5.18
2023-12-05T00:35:52.954Z,7.23
2023-12-05T00:38:54.992Z,7.53
2023-12-05T00:41:57.271Z,6.43
2023-12-05T00:44:59.379Z,6.27
2023-12-05T00:48:01.620Z,8.30
2023-12-05T00:51:04.125Z,6.83
2023-12-05T00:54:06.280Z,5.03
2023-12-05T00:57:08.302Z,5.50
2023-12-05T01:00:12.720Z,5.93
2023-12-05T01:03:16.825Z,4.93
2023-12-05T01:09:22.620Z,8.50
2023-12-05T01:12:26.088Z,6.17
2023-12-05T01:15:28.197Z,6.70
2023-12-05T01:18:30.579Z,5.67
2023-12-05T01:21:32.690Z,7.33
2023-12-05T01:24:35.069Z,5.93
2023-12-05T01:27:37.251Z,5.80
2023-12-05T01:30:39.897Z,5.53
2023-12-05T01:33:42.127Z,6.50
2023-12-05T01:36:44.345Z,6.80
2023-12-05T01:39:46.567Z,6.93
2023-12-05T01:42:48.863Z,4.63
2023-12-05T01:45:51.183Z,5.77
2023-12-05T01:48:53.604Z,5.83
2023-12-05T01:51:57.101Z,5.57
2023-12-05T01:55:00.018Z,5.37
2023-12-05T01:58:02.704Z,6.43
2023-12-05T02:01:09.285Z,5.47
2023-12-05T02:04:11.583Z,5.83
2023-12-05T02:07:15.162Z,6.07
2023-12-05T02:10:17.300Z,5.23
2023-12-05T02:13:19.365Z,6.57
2023-12-05T02:16:39.164Z,5.43
2023-12-05T02:19:47.906Z,6.07
2023-12-05T02:23:43.996Z,6.00
2023-12-05T02:26:51.833Z,5.80
2023-12-05T02:29:54.037Z,4.53
2023-12-05T02:32:56.306Z,5.57
2023-12-05T02:36:50.449Z,7.20
2023-12-05T02:40:08.604Z,4.60
2023-12-05T02:43:13.597Z,4.70
2023-12-05T02:46:19.065Z,6.63
2023-12-05T02:49:21.428Z,6.77
2023-12-05T02:52:23.964Z,5.97
2023-12-05T02:55:26.038Z,5.37
2023-12-05T02:58:29.291Z,5.57
2023-12-05T03:01:38.588Z,5.60
2023-12-05T03:04:40.972Z,6.30
2023-12-05T03:07:43.101Z,6.00
2023-12-05T03:10:54.700Z,4.77
2023-12-05T03:14:05.277Z,4.90
2023-12-05T03:17:08.149Z,6.57
2023-12-05T03:20:10.546Z,5.83
2023-12-05T03:23:12.658Z,5.20
2023-12-05T03:26:23.030Z,6.73
2023-12-05T03:29:26.363Z,7.03
2023-12-05T03:32:28.463Z,5.23
2023-12-05T03:35:31.421Z,6.07
2023-12-05T03:38:34.995Z,7.43
2023-12-05T03:41:37.090Z,5.43
2023-12-05T03:44:39.222Z,6.03
2023-12-05T03:47:41.388Z,7.87
2023-12-05T03:50:43.415Z,5.17
2023-12-05T03:53:45.594Z,5.90
2023-12-05T03:56:47.757Z,6.73
2023-12-05T03:59:49.916Z,5.20
2023-12-05T04:02:52.271Z,5.67
2023-12-05T04:05:54.453Z,6.93
2023-12-05T04:08:56.529Z,6.40
2023-12-05T04:11:59.404Z,7.10
2023-12-05T04:15:01.535Z,6.07
2023-12-05T04:18:04.507Z,8.17
2023-12-05T04:21:06.864Z,6.37
2023-12-05T04:24:10.897Z,7.80
2023-12-05T04:27:14.790Z,5.80
2023-12-05T04:30:20.025Z,6.32
2023-12-05T04:33:23.936Z,7.97
2023-12-05T04:36:26.099Z,8.53
2023-12-05T04:39:28.363Z,7.73
2023-12-05T04:42:30.457Z,8.47
2023-12-05T04:45:33.027Z,9.93
2023-12-05T04:48:35.295Z,7.90
2023-12-05T04:51:37.493Z,6.30
2023-12-05T04:54:39.663Z,7.23
2023-12-05T04:57:41.866Z,7.67
2023-12-05T05:00:44.026Z,8.20
2023-12-05T05:03:46.404Z,7.90
2023-12-05T05:06:48.693Z,8.00
2023-12-05T05:09:51.072Z,7.03
2023-12-05T05:12:53.300Z,8.77
2023-12-05T05:16:15.831Z,7.17
2023-12-05T05:19:17.977Z,6.80
2023-12-05T05:22:20.122Z,6.97
2023-12-05T05:25:22.368Z,7.30
2023-12-05T05:28:24.514Z,7.67
2023-12-05T05:31:26.774Z,6.77
2023-12-05T05:34:29.012Z,6.83
2023-12-05T05:37:32.039Z,7.13
2023-12-05T05:40:34.092Z,7.13
2023-12-05T05:43:36.203Z,8.93
2023-12-05T05:46:38.444Z,7.90
2023-12-05T05:49:41.239Z,8.77
2023-12-05T05:52:44.588Z,7.77
2023-12-05T05:55:46.706Z,9.70
2023-12-05T05:58:48.990Z,9.23
2023-12-05T06:01:51.080Z,8.90
2023-12-05T06:04:55.485Z,8.32
2023-12-05T06:07:57.708Z,7.63
2023-12-05T06:11:00.369Z,7.93
2023-12-05T06:14:02.490Z,8.33
2023-12-05T06:17:04.883Z,8.87
2023-12-05T06:20:09.992Z,9.10
2023-12-05T06:23:12.246Z,8.57
2023-12-05T06:26:14.387Z,8.47
2023-12-05T06:29:17.389Z,8.97
2023-12-05T06:32:20.501Z,8.77
2023-12-05T06:35:22.838Z,7.60
2023-12-05T06:38:24.978Z,8.60
2023-12-05T06:41:27.597Z,11.33
2023-12-05T06:44:29.704Z,9.60
2023-12-05T06:47:32.524Z,7.90
2023-12-05T06:50:34.719Z,11.23
2023-12-05T06:53:39.915Z,9.33
2023-12-05T06:56:44.605Z,9.27
2023-12-05T06:59:46.672Z,9.63
2023-12-05T07:02:49.189Z,9.63
2023-12-05T07:05:51.414Z,8.63
2023-12-05T07:08:53.563Z,11.57
2023-12-05T07:11:55.698Z,9.73
2023-12-05T07:14:58.309Z,10.20
2023-12-05T07:18:00.494Z,10.53
2023-12-05T07:21:02.730Z,12.33
2023-12-05T07:24:05.149Z,10.67
2023-12-05T07:27:07.174Z,11.73
2023-12-05T07:30:09.606Z,10.50
2023-12-05T07:33:14.048Z,15.90
2023-12-05T07:36:17.742Z,10.93
2023-12-05T07:39:20.012Z,10.73
2023-12-05T07:42:22.294Z,10.30
2023-12-05T07:45:24.411Z,11.77
2023-12-05T07:48:26.592Z,12.43
2023-12-05T07:51:28.858Z,11.73
2023-12-05T07:54:31.915Z,10.30
2023-12-05T07:57:34.084Z,9.77
2023-12-05T08:00:40.170Z,10.03
2023-12-05T08:03:42.487Z,10.60
2023-12-05T08:06:45.035Z,10.90
2023-12-05T08:09:47.886Z,10.93
2023-12-05T08:12:50.534Z,10.80
2023-12-05T08:15:56.454Z,9.97
2023-12-05T08:18:59.730Z,9.13
2023-12-05T08:22:02.046Z,9.80
2023-12-05T08:25:05.554Z,11.33
2023-12-05T08:28:07.877Z,10.33
2023-12-05T08:31:11.112Z,10.10
2023-12-05T08:34:14.376Z,9.53
2023-12-05T08:37:16.553Z,10.97
2023-12-05T08:40:18.832Z,10.43
2023-12-05T08:43:20.989Z,9.70
2023-12-05T08:46:23.213Z,8.73
2023-12-05T08:49:25.353Z,10.87
2023-12-05T08:52:27.517Z,11.33
2023-12-05T08:55:29.813Z,9.80
2023-12-05T08:58:33.098Z,11.00
2023-12-05T09:01:35.293Z,10.13
2023-12-05T09:04:38.810Z,9.17
2023-12-05T09:07:41.205Z,9.63
2023-12-05T09:10:43.556Z,8.40
2023-12-05T09:13:45.727Z,8.77
2023-12-05T09:16:48.007Z,9.70
2023-12-05T09:19:52.137Z,9.60
2023-12-05T09:23:00.940Z,8.95
2023-12-05T09:26:04.880Z,8.77
2023-12-05T09:29:07.359Z,8.40
2023-12-05T09:32:09.676Z,9.47
2023-12-05T09:35:12.122Z,8.07
2023-12-05T09:38:14.472Z,8.07
2023-12-05T09:41:17.979Z,7.30
2023-12-05T09:44:25.227Z,8.73
2023-12-05T09:47:29.819Z,7.50
2023-12-05T09:50:32.751Z,8.48
2023-12-05T09:53:35.641Z,7.20
2023-12-05T09:56:38.196Z,7.17
2023-12-05T09:59:40.895Z,6.57
2023-12-05T10:02:46.079Z,8.30
2023-12-05T10:05:50.269Z,8.30
2023-12-05T10:08:53.814Z,7.07
2023-12-05T10:11:57.235Z,5.77
2023-12-05T10:15:00.265Z,6.87
2023-12-05T10:18:03.168Z,6.67
2023-12-05T10:21:06.663Z,6.03
2023-12-05T10:24:09.227Z,6.57
2023-12-05T10:27:12.314Z,7.60
2023-12-05T10:30:34.919Z,7.30
2023-12-05T10:33:37.129Z,6.33
2023-12-05T10:36:39.626Z,7.70
2023-12-05T10:39:41.920Z,6.37
2023-12-05T10:42:44.539Z,6.43
2023-12-05T10:45:47.990Z,6.27
2023-12-05T10:48:50.875Z,8.07
2023-12-05T10:51:53.038Z,6.23
2023-12-05T10:54:59.456Z,5.80
2023-12-05T10:58:02.427Z,5.53
2023-12-05T11:01:05.487Z,7.00
2023-12-05T11:04:09.222Z,5.67
2023-12-05T11:07:12.666Z,7.23
2023-12-05T11:10:14.882Z,5.43
2023-12-05T11:13:17.268Z,6.50
2023-12-05T11:16:27.830Z,5.63
2023-12-05T11:20:05.134Z,6.90
2023-12-05T11:23:35.015Z,6.73
2023-12-05T11:27:05.508Z,7.00
2023-12-05T11:30:16.705Z,5.53
2023-12-05T11:33:18.998Z,6.40
2023-12-05T11:36:45.488Z,6.77
2023-12-05T11:39:47.905Z,5.07
2023-12-05T11:43:16.432Z,5.97
2023-12-05T11:46:19.430Z,7.27
2023-12-05T11:49:40.229Z,5.78
2023-12-05T11:52:45.674Z,6.70
2023-12-05T11:55:49.416Z,5.63
2023-12-05T11:58:51.649Z,6.23
2023-12-05T12:01:53.742Z,5.77
2023-12-05T12:05:05.092Z,5.77
2023-12-05T12:08:07.208Z,6.23
2023-12-05T12:11:09.607Z,6.63
2023-12-05T12:14:19.192Z,5.67
2023-12-05T12:17:21.393Z,5.30
2023-12-05T12:20:23.879Z,6.60
2023-12-05T12:23:26.860Z,5.57
2023-12-05T12:26:33.506Z,5.67
2023-12-05T12:29:40.195Z,7.50
2023-12-05T12:32:59.498Z,5.37
2023-12-05T12:36:01.768Z,6.20
2023-12-05T12:39:04.191Z,6.50
2023-12-05T12:42:07.176Z,6.30
2023-12-05T12:45:11.913Z,6.40
2023-12-05T12:48:19.154Z,6.03
2023-12-05T12:51:21.632Z,5.50
2023-12-05T12:54:25.964Z,6.40
2023-12-05T12:57:29.924Z,5.97
2023-12-05T13:00:37.907Z,6.57
2023-12-05T13:03:47.162Z,6.30
2023-12-05T13:06:49.533Z,5.53
2023-12-05T13:10:00.115Z,6.87
2023-12-05T13:13:07.027Z,7.67
2023-12-05T13:16:10.396Z,7.90
2023-12-05T13:19:32.721Z,6.77
2023-12-05T13:22:36.149Z,6.03
2023-12-05T13:25:43.542Z,7.60
2023-12-05T13:28:48.217Z,5.47
2023-12-05T13:31:50.433Z,6.27
2023-12-05T13:34:52.543Z,5.87
2023-12-05T13:37:54.886Z,6.83
2023-12-05T13:40:57.002Z,6.60
2023-12-05T13:43:59.271Z,6.17
2023-12-05T13:47:01.479Z,5.40
2023-12-05T13:50:06.892Z,6.40
2023-12-05T13:53:09.028Z,5.70
2023-12-05T13:56:11.859Z,5.70
2023-12-05T13:59:14.073Z,6.93
2023-12-05T14:02:16.571Z,7.10
2023-12-05T14:05:22.930Z,5.97
2023-12-05T14:08:25.614Z,5.93
2023-12-05T14:11:27.817Z,5.20
2023-12-05T14:14:30.865Z,6.27
2023-12-05T14:17:33.353Z,5.37
2023-12-05T14:20:35.664Z,4.23
2023-12-05T14:23:38.817Z,4.73
2023-12-05T14:26:40.958Z,4.90
2023-12-05T14:29:43.133Z,5.40
2023-12-05T14:32:45.486Z,4.70
2023-12-05T14:35:48.090Z,4.80
2023-12-05T14:39:00.030Z,5.40
2023-12-05T14:42:06.981Z,5.30
2023-12-05T14:45:09.927Z,4.63
2023-12-05T14:48:15.253Z,4.77
2023-12-05T14:51:17.677Z,4.37
2023-12-05T14:54:19.835Z,6.13
2023-12-05T14:57:23.535Z,4.90
2023-12-05T15:00:28.079Z,6.13
2023-12-05T15:03:37.902Z,5.30
2023-12-05T15:06:41.236Z,4.00
2023-12-05T15:09:45.437Z,5.37
2023-12-05T15:12:56.168Z,4.13
2023-12-05T15:15:58.573Z,5.63
2023-12-05T15:19:00.993Z,6.03
2023-12-05T15:22:03.323Z,4.83
2023-12-05T15:25:08.964Z,5.00
2023-12-05T15:28:12.674Z,4.63
2023-12-05T15:31:16.881Z,4.50
2023-12-05T15:34:20.833Z,4.45
2023-12-05T15:37:23.024Z,4.47
2023-12-05T15:40:25.334Z,5.90
2023-12-05T15:43:27.573Z,5.10
2023-12-05T15:46:29.926Z,5.00
2023-12-05T15:49:32.564Z,4.90
2023-12-05T15:52:35.120Z,6.13
2023-12-05T15:55:38.915Z,4.50
2023-12-05T15:58:41.518Z,5.57
2023-12-05T16:01:44.859Z,4.67
2023-12-05T16:04:47.143Z,4.60
2023-12-05T16:07:49.241Z,4.40
2023-12-05T16:10:53.741Z,4.60
2023-12-05T16:13:56.224Z,5.05
2023-12-05T16:16:58.923Z,3.83
2023-12-05T16:20:01.187Z,4.57
2023-12-05T16:23:03.828Z,3.43
2023-12-05T16:26:08.302Z,4.57
2023-12-05T16:29:10.359Z,4.22
2023-12-05T16:32:12.991Z,4.33
2023-12-05T16:35:15.213Z,5.20
2023-12-05T16:38:17.357Z,5.53
2023-12-05T16:41:19.630Z,4.17
2023-12-05T16:44:21.770Z,5.03
2023-12-05T16:47:24.567Z,6.00
2023-12-05T16:50:30.129Z,3.67
2023-12-05T16:53:32.385Z,4.33
2023-12-05T16:56:34.552Z,3.97
2023-12-05T16:59:36.665Z,4.40
2023-12-05T17:02:38.893Z,5.40
2023-12-05T17:05:43.813Z,4.10
2023-12-05T17:08:46.112Z,4.90
2023-12-05T17:11:48.267Z,4.40
2023-12-05T17:14:50.349Z,5.17
2023-12-05T17:17:53.493Z,4.63
2023-12-05T17:20:55.641Z,5.13
2023-12-05T17:23:59.335Z,4.63
2023-12-05T17:27:01.495Z,4.00
2023-12-05T17:30:04.792Z,4.10
2023-12-05T17:33:07.022Z,2.93
2023-12-05T17:36:09.922Z,5.03
2023-12-05T17:39:11.974Z,3.83
2023-12-05T17:42:14.229Z,3.77
2023-12-05T17:45:16.404Z,3.87
2023-12-05T17:48:18.629Z,4.20
2023-12-05T17:51:20.928Z,3.93
2023-12-05T17:54:23.601Z,3.67
2023-12-05T17:57:25.883Z,6.23
2023-12-05T18:00:28.401Z,4.43
2023-12-05T18:03:30.788Z,3.90
2023-12-05T18:06:33.020Z,3.37
2023-12-05T18:09:35.717Z,5.37
2023-12-05T18:12:38.283Z,5.17
2023-12-05T18:15:40.546Z,6.00
2023-12-05T18:18:42.777Z,4.03
2023-12-05T18:21:45.040Z,5.27
2023-12-05T18:24:47.274Z,5.73
2023-12-05T18:27:51.092Z,5.07
2023-12-05T18:30:53.362Z,7.10
2023-12-05T18:33:57.178Z,4.10
2023-12-05T18:37:02.133Z,5.43
2023-12-05T18:40:05.763Z,4.23
2023-12-05T18:43:08.843Z,6.13
2023-12-05T18:46:11.073Z,4.90
2023-12-05T18:49:13.480Z,5.30
2023-12-05T18:52:15.840Z,4.57
2023-12-05T18:55:17.927Z,4.73
2023-12-05T18:58:25.687Z,6.23
2023-12-05T19:01:28.116Z,4.50
2023-12-05T19:04:30.340Z,5.57
2023-12-05T19:07:32.567Z,5.13
2023-12-05T19:10:34.979Z,6.30
2023-12-05T19:13:37.071Z,3.57
2023-12-05T19:16:40.149Z,5.93
2023-12-05T19:19:42.285Z,5.17
2023-12-05T19:22:44.960Z,4.10
2023-12-05T19:25:47.052Z,4.70
2023-12-05T19:28:54.484Z,4.33
2023-12-05T19:31:59.629Z,5.97
2023-12-05T19:35:08.116Z,5.07
2023-12-05T19:38:10.366Z,5.10
2023-12-05T19:41:12.590Z,4.80
2023-12-05T19:44:15.349Z,4.60
2023-12-05T19:47:19.358Z,4.40
2023-12-05T19:50:21.672Z,5.20
2023-12-05T19:53:23.831Z,4.10
2023-12-05T19:56:26.711Z,5.00
2023-12-05T19:59:28.845Z,5.70
2023-12-05T20:02:30.935Z,6.50
2023-12-05T20:05:35.156Z,5.77
2023-12-05T20:08:37.289Z,4.90
2023-12-05T20:11:39.396Z,5.87
2023-12-05T20:14:41.658Z,4.53
2023-12-05T20:17:43.917Z,4.30
2023-12-05T20:20:46.086Z,4.07
2023-12-05T20:23:48.538Z,4.37
2023-12-05T20:26:50.945Z,5.03
2023-12-05T20:29:57.097Z,5.97
2023-12-05T20:32:59.478Z,4.23
2023-12-05T20:36:01.619Z,4.90
2023-12-05T20:39:06.251Z,4.63
2023-12-05T20:42:10.219Z,4.82
2023-12-05T20:45:14.106Z,4.53
2023-12-05T20:48:16.729Z,4.50
2023-12-05T20:51:19.098Z,4.77
2023-12-05T20:54:22.191Z,4.27
2023-12-05T20:57:24.449Z,4.97
2023-12-05T21:00:35.109Z,5.27
2023-12-05T21:03:37.742Z,4.83
2023-12-05T21:06:49.782Z,5.03
2023-12-05T21:09:53.027Z,4.23
2023-12-05T21:12:58.507Z,3.40
2023-12-05T21:16:00.706Z,3.67
2023-12-05T21:19:02.987Z,3.83
2023-12-05T21:22:05.331Z,5.00
2023-12-05T21:25:09.409Z,4.23
2023-12-05T21:28:14.480Z,4.60
2023-12-05T21:31:17.422Z,3.53
2023-12-05T21:34:19.691Z,4.13
2023-12-05T21:37:22.122Z,4.27
2023-12-05T21:40:24.377Z,3.17
2023-12-05T21:43:28.166Z,3.37
2023-12-05T21:46:30.568Z,3.13
2023-12-05T21:49:34.285Z,2.87
2023-12-05T21:52:36.808Z,3.37
2023-12-05T21:55:39.035Z,4.13
2023-12-05T21:58:44.386Z,4.57
2023-12-05T22:01:50.685Z,4.10
2023-12-05T22:04:52.932Z,3.20
2023-12-05T22:07:55.174Z,3.53
2023-12-05T22:10:57.580Z,3.50
2023-12-05T22:13:59.746Z,4.27
2023-12-05T22:17:01.778Z,2.67
2023-12-05T22:20:07.536Z,3.77
2023-12-05T22:23:10.187Z,3.37
2023-12-05T22:26:17.199Z,3.17
2023-12-05T22:29:19.368Z,3.27
2023-12-05T22:32:21.686Z,3.17
2023-12-05T22:35:23.785Z,4.40
2023-12-05T22:38:26.519Z,2.93
2023-12-05T22:41:28.640Z,4.43
2023-12-05T22:44:31.833Z,3.43
2023-12-05T22:47:34.033Z,2.80
2023-12-05T22:50:36.302Z,3.53
2023-12-05T22:53:42.108Z,3.57
2023-12-05T22:56:44.440Z,2.93
2023-12-05T22:59:46.725Z,4.30
2023-12-05T23:02:48.915Z,3.17
2023-12-05T23:05:51.119Z,2.67
2023-12-05T23:08:53.511Z,3.13
2023-12-05T23:11:57.293Z,3.60
2023-12-05T23:14:59.743Z,4.13
2023-12-05T23:18:02.733Z,3.53
2023-12-05T23:21:05.575Z,3.37
2023-12-05T23:24:08.032Z,3.20
2023-12-05T23:27:10.650Z,4.57
2023-12-05T23:30:13.618Z,2.17
2023-12-05T23:33:16.968Z,2.30
2023-12-05T23:36:19.722Z,2.30
2023-12-05T23:39:22.860Z,2.07
2023-12-05T23:42:26.402Z,2.70
2023-12-05T23:45:29.130Z,2.63
2023-12-05T23:48:32.255Z,2.80
2023-12-05T23:51:34.642Z,3.20
2023-12-05T23:54:36.791Z,2.70
2023-12-05T23:57:39.086Z,2.53
